Time;durP1;ratioP1;P1;durP2;ratioP2;P2;SDS_P1;SDS_P2;PMS_P1;PMS_P2;Temp;Humidity;BMP_temperature;BMP_pressure;BME280_temperature;BME280_humidity;BME280_pressure;Samples;Min_cycle;Max_cycle;Signal;HPM_P1;HPM_P2
2022/01/24 00:01:38;;;;;;;0.00;0.00;;;3.30;82.40;;;;;;4186429;28;20040;-59
2022/01/24 00:04:02;;;;;;;0.00;0.00;;;3.30;82.50;;;;;;4181120;28;20502;-58
2022/01/24 00:06:26;;;;;;;0.00;0.00;;;3.30;82.40;;;;;;4180788;28;20599;-60
2022/01/24 00:08:48;;;;;;;0.00;0.00;;;3.30;82.20;;;;;;4181155;28;20079;-58
2022/01/24 00:11:15;;;;;;;0.00;0.00;;;3.30;82.20;;;;;;4180722;28;20052;-54
2022/01/24 00:26:59;;;;;;;0.00;0.00;;;3.10;82.40;;;;;;4180603;28;20045;-59
2022/01/24 00:29:23;;;;;;;0.00;0.00;;;3.10;82.50;;;;;;4180681;28;20052;-59
2022/01/24 00:31:47;;;;;;;0.00;0.00;;;3.10;82.60;;;;;;4207592;28;20050;-57
2022/01/24 00:34:09;;;;;;;0.00;0.00;;;3.10;82.60;;;;;;4180633;28;20088;-58
2022/01/24 00:36:32;;;;;;;0.00;0.00;;;3.00;82.70;;;;;;4177348;28;20574;-58
2022/01/24 00:38:55;;;;;;;0.00;0.00;;;3.00;82.70;;;;;;4164361;28;20056;-60
2022/01/24 00:41:20;;;;;;;0.00;0.00;;;3.00;82.80;;;;;;4173000;28;20046;-58
2022/01/24 00:44:03;;;;;;;0.00;0.00;;;3.00;82.90;;;;;;4180498;28;20041;-58
2022/01/24 00:46:34;;;;;;;0.00;0.00;;;2.90;83.00;;;;;;4193232;28;20467;-55
2022/01/24 00:49:18;;;;;;;0.00;0.00;;;2.90;83.00;;;;;;4180692;28;20561;-55
2022/01/24 00:57:00;;;;;;;0.00;0.00;;;2.80;82.90;;;;;;4180516;28;20529;-58
2022/01/24 00:59:23;;;;;;;0.00;0.00;;;2.80;82.90;;;;;;4180184;28;20044;-60
2022/01/24 01:01:45;;;;;;;0.00;0.00;;;2.80;82.90;;;;;;4180029;28;20526;-58
2022/01/24 01:04:08;;;;;;;0.00;0.00;;;2.80;82.80;;;;;;4164354;28;20060;-59
2022/01/24 01:06:32;;;;;;;0.00;0.00;;;2.80;82.80;;;;;;4180754;28;20080;-58
2022/01/24 01:19:59;;;;;;;0.00;0.00;;;2.70;82.90;;;;;;4176865;28;20056;-54
2022/01/24 01:22:28;;;;;;;0.00;0.00;;;2.70;82.80;;;;;;4179592;28;20541;-57
2022/01/24 01:24:54;;;;;;;0.00;0.00;;;2.70;82.80;;;;;;4180849;28;20075;-58
2022/01/24 01:27:22;;;;;;;0.00;0.00;;;2.70;82.80;;;;;;4179833;28;20059;-56
2022/01/24 01:32:37;;;;;;;0.00;0.00;;;2.70;83.10;;;;;;4166296;28;20099;-60
2022/01/24 01:38:04;;;;;;;0.00;0.00;;;2.70;83.20;;;;;;4179700;28;20036;-59
2022/01/24 01:56:48;;;;;;;0.00;0.00;;;2.70;84.00;;;;;;4175109;28;20042;-57
2022/01/24 01:59:20;;;;;;;0.00;0.00;;;2.70;84.70;;;;;;4163677;28;20473;-55
2022/01/24 02:01:45;;;;;;;0.00;0.00;;;2.70;84.20;;;;;;4162673;28;20575;-55
2022/01/24 02:04:08;;;;;;;0.00;0.00;;;2.70;84.30;;;;;;4163053;28;20057;-56
2022/01/24 02:06:38;;;;;;;0.00;0.00;;;2.80;84.30;;;;;;4163315;28;20049;-58
2022/01/24 02:09:06;;;;;;;0.00;0.00;;;2.70;84.30;;;;;;4162621;28;20056;-58
2022/01/24 02:11:29;;;;;;;0.00;0.00;;;2.70;84.50;;;;;;4163497;28;20103;-60
2022/01/24 02:14:06;;;;;;;0.00;0.00;;;2.80;84.60;;;;;;4163758;28;20461;-60
2022/01/24 02:16:45;;;;;;;0.00;0.00;;;2.80;84.60;;;;;;4192383;28;20044;-58
2022/01/24 02:21:47;;;;;;;0.00;0.00;;;2.90;84.60;;;;;;4178732;28;20076;-60
2022/01/24 02:24:12;;;;;;;0.00;0.00;;;3.00;84.60;;;;;;4179953;28;20045;-58
2022/01/24 02:26:34;;;;;;;0.00;0.00;;;3.00;84.50;;;;;;4178412;28;20581;-58
2022/01/24 02:29:07;;;;;;;0.00;0.00;;;3.00;84.70;;;;;;4192764;28;20131;-61
2022/01/24 02:34:17;;;;;;;0.00;0.00;;;3.00;84.80;;;;;;4192692;28;20053;-56
2022/01/24 02:36:39;;;;;;;0.00;0.00;;;3.10;84.90;;;;;;4178324;28;20478;-56
2022/01/24 02:39:43;;;;;;;0.00;0.00;;;3.10;84.90;;;;;;4178799;28;20044;-55
2022/01/24 02:50:09;;;;;;;0.00;0.00;;;3.30;84.80;;;;;;4178507;28;20158;-53
2022/01/24 02:52:31;;;;;;;0.00;0.00;;;3.30;84.80;;;;;;4161520;28;20056;-57
2022/01/24 02:54:53;;;;;;;0.00;0.00;;;3.30;84.90;;;;;;4172576;28;20400;-58
2022/01/24 02:57:17;;;;;;;0.00;0.00;;;3.40;84.90;;;;;;4170930;28;20049;-60
2022/01/24 02:59:39;;;;;;;0.00;0.00;;;3.40;85.00;;;;;;4166415;28;20419;-58
2022/01/24 03:02:02;;;;;;;0.00;0.00;;;3.40;85.10;;;;;;4176793;28;20076;-59
2022/01/24 03:04:25;;;;;;;0.00;0.00;;;3.40;85.10;;;;;;4178003;28;20053;-59
2022/01/24 03:06:48;;;;;;;0.00;0.00;;;3.40;85.10;;;;;;4173112;28;20041;-58
2022/01/24 03:09:11;;;;;;;0.00;0.00;;;3.40;85.20;;;;;;4169883;28;20045;-56
2022/01/24 03:12:00;;;;;;;0.00;0.00;;;3.20;85.60;;;;;;4199790;28;20094;-58
2022/01/24 03:14:24;;;;;;;0.00;0.00;;;3.20;86.20;;;;;;4168552;28;20380;-58
2022/01/24 03:16:47;;;;;;;0.00;0.00;;;3.20;86.30;;;;;;4147931;28;20042;-62
2022/01/24 03:19:09;;;;;;;0.00;0.00;;;3.10;86.60;;;;;;4161851;28;20057;-59
2022/01/24 03:21:32;;;;;;;0.00;0.00;;;3.10;86.80;;;;;;4161291;28;20090;-60
2022/01/24 03:23:55;;;;;;;0.00;0.00;;;3.10;86.90;;;;;;4170656;28;20098;-58
2022/01/24 03:26:17;;;;;;;0.00;0.00;;;3.00;87.20;;;;;;4147225;28;20053;-57
2022/01/24 03:28:39;;;;;;;0.00;0.00;;;2.90;87.50;;;;;;4192365;28;20603;-59
2022/01/24 03:31:01;;;;;;;0.00;0.00;;;2.90;87.80;;;;;;4177882;28;20045;-60
2022/01/24 03:33:24;;;;;;;0.00;0.00;;;2.80;88.10;;;;;;4178121;28;20049;-60
2022/01/24 03:35:46;;;;;;;0.00;0.00;;;2.90;88.10;;;;;;4165019;28;20053;-59
2022/01/24 03:38:09;;;;;;;0.00;0.00;;;3.00;87.90;;;;;;4161644;28;20076;-58
2022/01/24 03:40:31;;;;;;;0.00;0.00;;;2.90;87.90;;;;;;4177377;28;20053;-59
2022/01/24 03:42:54;;;;;;;0.00;0.00;;;3.00;88.10;;;;;;4178170;28;20045;-60
2022/01/24 03:45:23;;;;;;;0.00;0.00;;;2.90;88.40;;;;;;4177978;28;20164;-58
2022/01/24 03:48:03;;;;;;;0.00;0.00;;;2.80;88.90;;;;;;4191795;28;20045;-54
2022/01/24 03:50:25;;;;;;;0.00;0.00;;;2.70;89.40;;;;;;4191505;28;20745;-53
2022/01/24 03:52:48;;;;;;;0.00;0.00;;;2.70;89.50;;;;;;4177755;28;20143;-56
2022/01/24 03:55:12;;;;;;;0.00;0.00;;;2.70;89.70;;;;;;4177905;28;20057;-60
2022/01/24 03:57:34;;;;;;;0.00;0.00;;;2.70;89.80;;;;;;4166366;28;20045;-56
2022/01/24 03:59:57;;;;;;;0.00;0.00;;;2.80;89.70;;;;;;4175962;28;20141;-57
2022/01/24 04:02:22;;;;;;;0.00;0.00;;;2.80;89.50;;;;;;4175670;28;20136;-59
2022/01/24 04:04:45;;;;;;;0.00;0.00;;;2.80;89.40;;;;;;4192023;28;20493;-60
2022/01/24 04:07:08;;;;;;;0.00;0.00;;;2.80;89.50;;;;;;4177917;28;20464;-58
2022/01/24 04:09:34;;;;;;;0.00;0.00;;;2.70;89.70;;;;;;4177775;28;20131;-58
2022/01/24 04:11:58;;;;;;;0.00;0.00;;;2.70;89.70;;;;;;4177596;28;20049;-58
2022/01/24 04:16:52;;;;;;;0.00;0.00;;;2.80;89.70;;;;;;4177826;28;20075;-60
2022/01/24 04:21:56;;;;;;;0.00;0.00;;;2.70;90.00;;;;;;4179780;28;20086;-54
2022/01/24 04:24:22;;;;;;;0.00;0.00;;;2.60;90.00;;;;;;4166773;28;20524;-53
2022/01/24 04:26:44;;;;;;;0.00;0.00;;;2.60;90.00;;;;;;4180714;28;20045;-54
2022/01/24 04:29:08;;;;;;;0.00;0.00;;;2.70;90.00;;;;;;4180657;28;20052;-53
2022/01/24 04:31:32;;;;;;;0.00;0.00;;;2.70;90.00;;;;;;4180645;28;20064;-58
2022/01/24 04:33:55;;;;;;;0.00;0.00;;;2.70;90.00;;;;;;4194480;28;20127;-56
2022/01/24 04:36:19;;;;;;;0.00;0.00;;;2.70;90.00;;;;;;4180405;28;20155;-59
2022/01/24 04:38:42;;;;;;;0.00;0.00;;;2.70;90.00;;;;;;4180776;28;20040;-59
2022/01/24 04:41:14;;;;;;;0.00;0.00;;;2.70;90.00;;;;;;4180507;28;20060;-57
2022/01/24 04:46:30;;;;;;;0.00;0.00;;;2.70;90.00;;;;;;4180547;28;20087;-59
2022/01/24 04:56:30;;;;;;;0.00;0.00;;;2.40;90.10;;;;;;4180010;28;20095;-59
2022/01/24 04:58:53;;;;;;;0.00;0.00;;;2.40;90.10;;;;;;4180231;28;20102;-56
2022/01/24 05:01:23;;;;;;;0.00;0.00;;;2.40;90.10;;;;;;4180173;28;20556;-57
2022/01/24 05:03:45;;;;;;;0.00;0.00;;;2.40;90.20;;;;;;4180230;28;20107;-56
2022/01/24 05:06:08;;;;;;;0.00;0.00;;;2.40;90.30;;;;;;4180202;28;20106;-58
2022/01/24 05:08:30;;;;;;;0.00;0.00;;;2.40;90.30;;;;;;4179693;28;20072;-59
2022/01/24 05:11:00;;;;;;;0.00;0.00;;;2.40;90.30;;;;;;4180018;28;20045;-55
2022/01/24 05:23:52;;;;;;;0.00;0.00;;;2.50;90.30;;;;;;4177459;28;20182;-61
2022/01/24 05:26:15;;;;;;;0.00;0.00;;;2.60;90.30;;;;;;4179326;28;20132;-57
2022/01/24 05:28:38;;;;;;;0.00;0.00;;;2.60;90.30;;;;;;4193920;28;20364;-59
2022/01/24 05:31:01;;;;;;;0.00;0.00;;;2.70;90.50;;;;;;4178662;28;20071;-58
2022/01/24 05:33:24;;;;;;;0.00;0.00;;;2.80;90.20;;;;;;4193301;28;20045;-54
2022/01/24 05:35:47;;;;;;;0.00;0.00;;;2.90;90.00;;;;;;4179898;28;20076;-59
2022/01/24 05:38:10;;;;;;;0.00;0.00;;;2.80;89.90;;;;;;4193942;28;20044;-59
2022/01/24 05:40:33;;;;;;;0.00;0.00;;;2.90;89.80;;;;;;4179171;28;20505;-60
2022/01/24 05:42:56;;;;;;;0.00;0.00;;;2.90;89.80;;;;;;4193909;28;20068;-59
2022/01/24 05:45:18;;;;;;;0.00;0.00;;;2.80;89.80;;;;;;4179639;28;20041;-59
2022/01/24 05:47:46;;;;;;;0.00;0.00;;;2.90;89.70;;;;;;4166610;28;20045;-57
2022/01/24 05:50:09;;;;;;;0.00;0.00;;;2.90;89.80;;;;;;4177312;28;20048;-56
2022/01/24 05:52:31;;;;;;;0.00;0.00;;;2.90;89.70;;;;;;4179540;28;20076;-57
2022/01/24 05:54:54;;;;;;;0.00;0.00;;;2.90;89.60;;;;;;4152353;28;20049;-58
2022/01/24 05:57:16;;;;;;;0.00;0.00;;;2.90;89.60;;;;;;4179762;28;20159;-59
2022/01/24 05:59:38;;;;;;;0.00;0.00;;;2.80;89.70;;;;;;4167722;28;20045;-58
2022/01/24 06:02:01;;;;;;;0.00;0.00;;;2.70;90.00;;;;;;4177403;28;20049;-60
2022/01/24 06:04:25;;;;;;;0.00;0.00;;;2.70;90.10;;;;;;4162582;28;20121;-60
2022/01/24 06:06:47;;;;;;;0.00;0.00;;;2.70;90.30;;;;;;4163022;28;20069;-60
2022/01/24 06:09:10;;;;;;;0.00;0.00;;;2.70;90.40;;;;;;4176781;28;20076;-60
2022/01/24 06:11:32;;;;;;;0.00;0.00;;;2.70;90.40;;;;;;4162711;28;20049;-56
2022/01/24 06:13:57;;;;;;;0.00;0.00;;;2.60;90.50;;;;;;4191046;28;20123;-60
2022/01/24 06:16:19;;;;;;;0.00;0.00;;;2.70;90.60;;;;;;4179056;28;20148;-59
2022/01/24 06:18:42;;;;;;;0.00;0.00;;;2.70;90.60;;;;;;4192945;28;20048;-60
2022/01/24 06:21:04;;;;;;;0.00;0.00;;;2.70;90.60;;;;;;4178858;28;20055;-60
2022/01/24 06:23:27;;;;;;;0.00;0.00;;;2.70;90.60;;;;;;4179153;28;20053;-60
2022/01/24 06:25:49;;;;;;;0.00;0.00;;;2.70;90.60;;;;;;4164873;28;20046;-59
2022/01/24 06:28:12;;;;;;;0.00;0.00;;;2.80;90.50;;;;;;4178794;28;20045;-60
2022/01/24 06:30:35;;;;;;;0.00;0.00;;;2.80;90.50;;;;;;4192596;28;20041;-60
2022/01/24 06:33:01;;;;;;;0.00;0.00;;;2.70;90.50;;;;;;4178759;28;20048;-59
2022/01/24 06:35:26;;;;;;;0.00;0.00;;;2.70;90.60;;;;;;4165280;28;20045;-59
2022/01/24 06:37:49;;;;;;;0.00;0.00;;;2.70;90.70;;;;;;4178950;28;20045;-59
2022/01/24 06:40:13;;;;;;;0.00;0.00;;;2.70;90.70;;;;;;4178399;28;20569;-60
2022/01/24 06:42:38;;;;;;;0.00;0.00;;;2.70;90.70;;;;;;4178911;28;20051;-61
2022/01/24 06:45:00;;;;;;;0.00;0.00;;;2.70;90.70;;;;;;4177882;28;20060;-56
2022/01/24 06:47:26;;;;;;;0.00;0.00;;;2.70;90.70;;;;;;4192484;28;20041;-60
2022/01/24 06:49:50;;;;;;;0.00;0.00;;;2.70;90.70;;;;;;4178620;28;20589;-56
2022/01/24 06:52:15;;;;;;;0.00;0.00;;;2.70;90.80;;;;;;4177896;28;20135;-57
2022/01/24 06:54:41;;;;;;;0.00;0.00;;;2.70;90.80;;;;;;4178964;28;20045;-59
2022/01/24 06:57:04;;;;;;;0.00;0.00;;;2.70;90.70;;;;;;4178569;28;20102;-58
2022/01/24 06:59:26;;;;;;;0.00;0.00;;;2.80;90.70;;;;;;4178540;28;20060;-53
2022/01/24 07:01:48;;;;;;;0.00;0.00;;;2.70;90.70;;;;;;4178189;28;20384;-56
2022/01/24 07:04:11;;;;;;;0.00;0.00;;;2.80;90.80;;;;;;4178276;28;20048;-60
2022/01/24 07:06:34;;;;;;;0.00;0.00;;;2.90;90.70;;;;;;4148398;28;20234;-52
2022/01/24 07:08:56;;;;;;;0.00;0.00;;;2.90;90.60;;;;;;4162020;28;20050;-61
2022/01/24 07:11:19;;;;;;;0.00;0.00;;;2.80;90.60;;;;;;4161890;28;20076;-59
2022/01/24 07:13:42;;;;;;;0.00;0.00;;;2.90;90.70;;;;;;4175959;28;20063;-60
2022/01/24 07:16:06;;;;;;;0.00;0.00;;;2.90;90.60;;;;;;4177719;28;20067;-51
2022/01/24 07:20:55;;;;;;;0.00;0.00;;;2.80;90.70;;;;;;4172348;28;20060;-59
2022/01/24 07:23:17;;;;;;;0.00;0.00;;;2.90;90.70;;;;;;4175954;28;20057;-60
2022/01/24 07:25:39;;;;;;;0.00;0.00;;;2.90;90.70;;;;;;4188076;28;20462;-54
2022/01/24 07:28:02;;;;;;;0.00;0.00;;;2.90;90.60;;;;;;4178213;28;20053;-58
2022/01/24 07:30:25;;;;;;;0.00;0.00;;;2.80;90.50;;;;;;4178206;28;20084;-59
2022/01/24 07:32:48;;;;;;;0.00;0.00;;;2.80;90.70;;;;;;4192215;28;20040;-58
2022/01/24 07:35:11;;;;;;;0.00;0.00;;;2.90;90.50;;;;;;4178042;28;20123;-59
2022/01/24 07:37:33;;;;;;;0.00;0.00;;;2.80;90.10;;;;;;4178242;28;20049;-60
2022/01/24 07:39:56;;;;;;;0.00;0.00;;;2.60;90.00;;;;;;4178343;28;20135;-61
2022/01/24 07:42:51;;;;;;;0.00;0.00;;;2.60;90.20;;;;;;4177523;28;20053;-58
2022/01/24 07:45:12;;;;;;;0.00;0.00;;;2.50;90.10;;;;;;4178541;28;20049;-59
2022/01/24 07:47:34;;;;;;;0.00;0.00;;;2.40;90.10;;;;;;4177825;28;20056;-55
2022/01/24 07:49:56;;;;;;;0.00;0.00;;;2.30;90.20;;;;;;4177821;28;20045;-56
2022/01/24 07:52:19;;;;;;;0.00;0.00;;;2.30;90.20;;;;;;4177362;28;20136;-61
2022/01/24 07:54:41;;;;;;;0.00;0.00;;;2.30;90.10;;;;;;4192334;28;20045;-59
2022/01/24 07:57:04;;;;;;;0.00;0.00;;;2.30;90.10;;;;;;4173246;28;20052;-57
2022/01/24 07:59:26;;;;;;;0.00;0.00;;;2.40;89.80;;;;;;4175533;28;20045;-55
2022/01/24 08:01:50;;;;;;;0.00;0.00;;;2.30;89.50;;;;;;4195114;28;20044;-60
2022/01/24 08:04:13;;;;;;;0.00;0.00;;;2.40;89.70;;;;;;4180986;28;20084;-56
2022/01/24 08:06:35;;;;;;;0.00;0.00;;;2.40;89.30;;;;;;4164704;28;20053;-57
2022/01/24 08:08:58;;;;;;;0.00;0.00;;;2.20;89.50;;;;;;4165105;28;20041;-60
2022/01/24 08:11:20;;;;;;;0.00;0.00;;;2.20;89.70;;;;;;4150876;28;20115;-60
2022/01/24 08:13:43;;;;;;;0.00;0.00;;;2.20;89.80;;;;;;4164770;28;20042;-60
2022/01/24 08:16:05;;;;;;;0.00;0.00;;;2.30;89.80;;;;;;4178770;28;20045;-60
2022/01/24 08:18:28;;;;;;;0.00;0.00;;;2.50;89.30;;;;;;4166754;28;20045;-60
2022/01/24 08:20:50;;;;;;;0.00;0.00;;;2.50;88.50;;;;;;4180856;28;20130;-60
2022/01/24 08:23:13;;;;;;;0.00;0.00;;;2.60;88.00;;;;;;4181041;28;20466;-60
2022/01/24 08:25:36;;;;;;;0.00;0.00;;;2.60;87.30;;;;;;4169613;28;20116;-60
2022/01/24 08:27:59;;;;;;;0.00;0.00;;;2.60;87.30;;;;;;4179071;28;20069;-60
2022/01/24 08:30:26;;;;;;;0.00;0.00;;;2.60;87.40;;;;;;4180626;28;20045;-54
2022/01/24 08:32:51;;;;;;;0.00;0.00;;;2.50;87.90;;;;;;4169408;28;20077;-58
2022/01/24 08:35:14;;;;;;;0.00;0.00;;;2.40;87.50;;;;;;4175352;28;20051;-59
2022/01/24 08:37:37;;;;;;;0.00;0.00;;;2.40;87.70;;;;;;4175889;28;20132;-55
2022/01/24 08:40:00;;;;;;;0.00;0.00;;;2.50;87.60;;;;;;4194628;28;20098;-56
2022/01/24 08:47:25;;;;;;;0.00;0.00;;;2.60;87.10;;;;;;4164219;28;20148;-53
2022/01/24 08:50:06;;;;;;;0.00;0.00;;;2.60;87.20;;;;;;4190936;28;20564;-53
2022/01/24 08:52:29;;;;;;;0.00;0.00;;;2.60;87.70;;;;;;4194208;28;20106;-52
2022/01/24 08:55:07;;;;;;;0.00;0.00;;;2.80;87.20;;;;;;4194467;28;20048;-56
2022/01/24 08:57:30;;;;;;;0.00;0.00;;;3.00;86.60;;;;;;4194515;28;20125;-54
2022/01/24 08:59:53;;;;;;;0.00;0.00;;;3.10;86.20;;;;;;4194425;28;20210;-55
2022/01/24 09:02:16;;;;;;;0.00;0.00;;;3.10;86.00;;;;;;4193921;28;20083;-50
2022/01/24 09:04:38;;;;;;;0.00;0.00;;;3.20;85.90;;;;;;4193125;28;20040;-59
2022/01/24 09:07:05;;;;;;;0.00;0.00;;;3.20;85.80;;;;;;4172608;28;20743;-58
2022/01/24 09:09:27;;;;;;;0.00;0.00;;;3.20;85.60;;;;;;4148730;28;20509;-60
2022/01/24 09:11:52;;;;;;;0.00;0.00;;;3.10;85.50;;;;;;4176881;28;20051;-60
2022/01/24 09:14:14;;;;;;;0.00;0.00;;;3.20;85.70;;;;;;4178100;28;20049;-58
2022/01/24 09:16:38;;;;;;;0.00;0.00;;;3.30;85.60;;;;;;4180228;28;20127;-58
2022/01/24 09:19:00;;;;;;;0.00;0.00;;;3.20;85.00;;;;;;4194292;28;20068;-60
2022/01/24 09:21:26;;;;;;;0.00;0.00;;;3.20;85.30;;;;;;4184051;28;20076;-57
2022/01/24 09:23:48;;;;;;;0.00;0.00;;;3.30;85.60;;;;;;4177636;28;20049;-60
2022/01/24 09:26:11;;;;;;;0.00;0.00;;;3.40;85.10;;;;;;4177838;28;20049;-59
2022/01/24 09:28:34;;;;;;;0.00;0.00;;;3.40;84.90;;;;;;4163439;28;20075;-59
2022/01/24 09:30:57;;;;;;;0.00;0.00;;;3.50;84.90;;;;;;4167198;28;20095;-60
2022/01/24 09:33:20;;;;;;;0.00;0.00;;;3.70;84.80;;;;;;4173123;28;20048;-60
2022/01/24 09:35:46;;;;;;;0.00;0.00;;;3.80;84.40;;;;;;4193681;28;20076;-57
2022/01/24 09:38:08;;;;;;;0.00;0.00;;;3.80;84.00;;;;;;4179847;28;20052;-59
2022/01/24 09:40:31;;;;;;;0.00;0.00;;;3.80;83.90;;;;;;4179344;28;20107;-59
2022/01/24 09:42:54;;;;;;;0.00;0.00;;;3.70;84.00;;;;;;4193721;28;20054;-59
2022/01/24 09:45:18;;;;;;;0.00;0.00;;;3.70;84.20;;;;;;4179749;28;20111;-59
2022/01/24 09:47:41;;;;;;;0.00;0.00;;;3.80;84.10;;;;;;4193586;28;20098;-59
2022/01/24 09:50:06;;;;;;;0.00;0.00;;;3.90;83.80;;;;;;4179698;28;20605;-57
2022/01/24 09:52:29;;;;;;;0.00;0.00;;;3.80;84.00;;;;;;4193591;28;20086;-58
2022/01/24 09:54:52;;;;;;;0.00;0.00;;;3.70;84.10;;;;;;4193763;28;20098;-59
2022/01/24 09:57:14;;;;;;;0.00;0.00;;;3.70;84.50;;;;;;4193575;28;20060;-58
2022/01/24 09:59:37;;;;;;;0.00;0.00;;;3.70;84.60;;;;;;4179528;28;20125;-57
2022/01/24 10:02:00;;;;;;;0.00;0.00;;;3.80;84.40;;;;;;4179291;28;20053;-58
2022/01/24 10:04:25;;;;;;;0.00;0.00;;;3.90;84.40;;;;;;4193060;28;20049;-59
2022/01/24 10:07:07;;;;;;;0.00;0.00;;;3.90;84.30;;;;;;4193569;28;20379;-57
2022/01/24 10:09:33;;;;;;;0.00;0.00;;;3.70;84.80;;;;;;4179363;28;20053;-58
2022/01/24 10:12:05;;;;;;;0.00;0.00;;;3.50;85.10;;;;;;4193199;28;20619;-58
2022/01/24 10:17:21;;;;;;;0.00;0.00;;;3.40;85.80;;;;;;4193285;28;20055;-58
2022/01/24 10:19:43;;;;;;;0.00;0.00;;;3.50;85.80;;;;;;4179153;28;20041;-59
2022/01/24 10:22:06;;;;;;;0.00;0.00;;;3.60;85.40;;;;;;4192816;28;20044;-59
2022/01/24 10:24:37;;;;;;;0.00;0.00;;;3.50;85.30;;;;;;4178912;28;20048;-59
2022/01/24 10:27:13;;;;;;;0.00;0.00;;;3.40;85.60;;;;;;4193093;28;20054;-58
2022/01/24 10:29:42;;;;;;;0.00;0.00;;;3.30;85.90;;;;;;4192840;28;20140;-59
2022/01/24 10:32:04;;;;;;;0.00;0.00;;;3.30;86.00;;;;;;4178955;28;20041;-58
2022/01/24 10:34:34;;;;;;;0.00;0.00;;;3.20;86.20;;;;;;4164217;28;20061;-59
2022/01/24 10:36:57;;;;;;;0.00;0.00;;;3.20;86.00;;;;;;4179044;28;20041;-59
2022/01/24 10:39:32;;;;;;;0.00;0.00;;;3.20;85.80;;;;;;4165397;28;20522;-59
2022/01/24 10:44:51;;;;;;;0.00;0.00;;;3.30;85.90;;;;;;4167585;28;20052;-59
2022/01/24 10:47:18;;;;;;;0.00;0.00;;;3.40;85.50;;;;;;4192712;28;20063;-59
2022/01/24 10:49:41;;;;;;;0.00;0.00;;;3.50;85.40;;;;;;4165656;28;20037;-58
2022/01/24 10:52:13;;;;;;;0.00;0.00;;;3.60;85.20;;;;;;4192359;28;20052;-62
2022/01/24 10:54:35;;;;;;;0.00;0.00;;;3.60;85.20;;;;;;4178611;28;20045;-60
2022/01/24 10:56:57;;;;;;;0.00;0.00;;;3.60;85.10;;;;;;4192834;28;20132;-58
2022/01/24 10:59:22;;;;;;;0.00;0.00;;;3.50;85.10;;;;;;4192720;28;20524;-58
2022/01/24 11:01:51;;;;;;;0.00;0.00;;;3.60;85.40;;;;;;4192250;28;20068;-57
2022/01/24 11:04:19;;;;;;;0.00;0.00;;;3.50;85.20;;;;;;4192309;28;20051;-58
2022/01/24 11:06:46;;;;;;;0.00;0.00;;;3.50;85.60;;;;;;4192745;28;20056;-58
2022/01/24 11:09:25;;;;;;;0.00;0.00;;;3.30;85.80;;;;;;4184515;28;20041;-57
2022/01/24 11:11:59;;;;;;;0.00;0.00;;;3.50;86.40;;;;;;4161758;28;20049;-58
2022/01/24 11:14:24;;;;;;;0.00;0.00;;;3.70;85.70;;;;;;4175711;28;20077;-58
2022/01/24 11:16:48;;;;;;;0.00;0.00;;;3.90;84.80;;;;;;4176026;28;20549;-58
2022/01/24 11:19:26;;;;;;;0.00;0.00;;;4.00;84.00;;;;;;4175550;28;20045;-58
2022/01/24 11:21:51;;;;;;;0.00;0.00;;;3.90;84.00;;;;;;4161774;28;20057;-59
2022/01/24 11:24:18;;;;;;;0.00;0.00;;;3.90;84.40;;;;;;4178160;28;20556;-59
2022/01/24 11:26:41;;;;;;;0.00;0.00;;;4.00;84.00;;;;;;4178247;28;20048;-58
2022/01/24 11:29:04;;;;;;;0.00;0.00;;;4.10;83.70;;;;;;4192305;28;20048;-59
2022/01/24 11:31:34;;;;;;;0.00;0.00;;;4.20;83.30;;;;;;4177409;28;20045;-57
2022/01/24 11:34:38;;;;;;;0.00;0.00;;;4.30;83.30;;;;;;4192012;28;20052;-58
2022/01/24 11:37:01;;;;;;;0.00;0.00;;;4.40;83.00;;;;;;4178071;28;20440;-57
2022/01/24 11:39:24;;;;;;;0.00;0.00;;;4.50;82.10;;;;;;4154755;28;20049;-59
2022/01/24 11:41:47;;;;;;;0.00;0.00;;;4.30;82.60;;;;;;4161547;28;20049;-59
2022/01/24 11:44:15;;;;;;;0.00;0.00;;;4.40;82.70;;;;;;4175963;28;20379;-58
2022/01/24 11:46:45;;;;;;;0.00;0.00;;;4.40;82.60;;;;;;4177934;28;20075;-59
2022/01/24 11:49:12;;;;;;;0.00;0.00;;;4.40;82.60;;;;;;4192264;28;20045;-58
2022/01/24 11:51:37;;;;;;;0.00;0.00;;;4.50;82.40;;;;;;4192001;28;20132;-58
2022/01/24 11:54:01;;;;;;;0.00;0.00;;;4.40;82.30;;;;;;4192077;28;20051;-59
2022/01/24 11:56:23;;;;;;;0.00;0.00;;;4.40;82.10;;;;;;4189883;28;20689;-58
2022/01/24 11:58:46;;;;;;;0.00;0.00;;;4.40;82.30;;;;;;4163916;28;20037;-58
2022/01/24 12:01:13;;;;;;;0.00;0.00;;;4.40;82.10;;;;;;4169214;28;20041;-58
2022/01/24 12:03:50;;;;;;;0.00;0.00;;;4.40;81.90;;;;;;4192117;28;20430;-55
2022/01/24 12:06:19;;;;;;;0.00;0.00;;;4.20;82.40;;;;;;4177634;28;20049;-59
2022/01/24 12:09:05;;;;;;;0.00;0.00;;;4.20;82.80;;;;;;4177970;28;20044;-57
2022/01/24 12:11:32;;;;;;;0.00;0.00;;;4.30;82.60;;;;;;4191751;28;20051;-57
2022/01/24 12:14:23;;;;;;;0.00;0.00;;;4.40;82.30;;;;;;4191353;28;20056;-60
2022/01/24 12:16:47;;;;;;;0.00;0.00;;;4.60;82.10;;;;;;4192117;28;20120;-59
2022/01/24 12:19:11;;;;;;;0.00;0.00;;;4.70;81.60;;;;;;4192045;28;20521;-58
2022/01/24 12:21:39;;;;;;;0.00;0.00;;;4.70;81.00;;;;;;4191501;28;20076;-59
2022/01/24 12:24:13;;;;;;;0.00;0.00;;;4.50;81.40;;;;;;4178177;28;20499;-60
2022/01/24 12:26:47;;;;;;;0.00;0.00;;;4.30;82.00;;;;;;4177618;28;20041;-58
2022/01/24 12:29:19;;;;;;;0.00;0.00;;;4.40;82.30;;;;;;4191676;28;20111;-59
2022/01/24 12:31:44;;;;;;;0.00;0.00;;;4.70;81.90;;;;;;4191733;28;20041;-60
2022/01/24 12:34:32;;;;;;;0.00;0.00;;;4.90;81.50;;;;;;4177965;28;20448;-59
2022/01/24 12:37:12;;;;;;;0.00;0.00;;;5.30;81.40;;;;;;4171530;28;20092;-59
2022/01/24 12:39:57;;;;;;;0.00;0.00;;;5.50;80.00;;;;;;4175337;28;20049;-59
2022/01/24 12:42:33;;;;;;;0.00;0.00;;;5.30;79.90;;;;;;4162021;28;20132;-58
2022/01/24 12:47:36;;;;;;;0.00;0.00;;;5.50;80.00;;;;;;4169009;28;20108;-59
2022/01/24 12:49:59;;;;;;;0.00;0.00;;;5.60;78.90;;;;;;4179244;28;20071;-59
2022/01/24 12:52:27;;;;;;;0.00;0.00;;;5.60;78.40;;;;;;4193977;28;20475;-58
2022/01/24 12:54:59;;;;;;;0.00;0.00;;;5.60;78.30;;;;;;4180842;28;20140;-57
2022/01/24 12:57:29;;;;;;;0.00;0.00;;;5.70;78.10;;;;;;4180653;28;20122;-60
2022/01/24 13:00:07;;;;;;;0.00;0.00;;;5.70;77.80;;;;;;4194575;28;20132;-60
2022/01/24 13:02:32;;;;;;;0.00;0.00;;;5.60;77.80;;;;;;4180475;28;20049;-59
2022/01/24 13:05:15;;;;;;;0.00;0.00;;;5.50;77.60;;;;;;4180701;28;20045;-58
2022/01/24 13:07:40;;;;;;;0.00;0.00;;;5.60;77.70;;;;;;4180277;28;20485;-60
2022/01/24 13:10:05;;;;;;;0.00;0.00;;;5.90;77.20;;;;;;4194252;28;20459;-60
2022/01/24 13:12:28;;;;;;;0.00;0.00;;;5.80;76.90;;;;;;4179566;28;20081;-61
2022/01/24 13:14:57;;;;;;;0.00;0.00;;;5.40;77.80;;;;;;4180414;28;20510;-59
2022/01/24 13:22:59;;;;;;;0.00;0.00;;;5.70;77.80;;;;;;4168955;28;20048;-59
2022/01/24 13:25:26;;;;;;;0.00;0.00;;;5.60;77.50;;;;;;4193900;28;20048;-60
2022/01/24 13:27:57;;;;;;;0.00;0.00;;;5.50;77.70;;;;;;4208296;28;20052;-60
2022/01/24 13:30:25;;;;;;;0.00;0.00;;;5.60;78.20;;;;;;4179912;28;20088;-60
2022/01/24 13:32:54;;;;;;;0.00;0.00;;;5.60;77.90;;;;;;4194171;28;20053;-60
2022/01/24 13:35:29;;;;;;;0.00;0.00;;;5.60;78.00;;;;;;4179931;28;20404;-60
2022/01/24 13:37:59;;;;;;;0.00;0.00;;;5.70;78.00;;;;;;4179967;28;20045;-60
2022/01/24 13:40:32;;;;;;;0.00;0.00;;;5.80;77.60;;;;;;4191895;28;20044;-58
2022/01/24 13:42:55;;;;;;;0.00;0.00;;;5.80;77.40;;;;;;4163461;28;20503;-60
2022/01/24 13:45:17;;;;;;;0.00;0.00;;;5.80;77.30;;;;;;4172520;28;20045;-59
2022/01/24 13:47:40;;;;;;;0.00;0.00;;;5.80;77.50;;;;;;4193756;28;20117;-59
2022/01/24 13:50:04;;;;;;;0.00;0.00;;;5.60;77.70;;;;;;4193729;28;20871;-60
2022/01/24 13:52:28;;;;;;;0.00;0.00;;;5.60;77.70;;;;;;4179098;28;20136;-59
2022/01/24 13:54:51;;;;;;;0.00;0.00;;;5.50;77.70;;;;;;4179259;28;20072;-60
2022/01/24 13:57:18;;;;;;;0.00;0.00;;;5.50;77.40;;;;;;4166031;28;20049;-59
2022/01/24 13:59:42;;;;;;;0.00;0.00;;;5.10;78.80;;;;;;4193526;28;20076;-59
2022/01/24 14:02:25;;;;;;;0.00;0.00;;;5.20;78.70;;;;;;4192505;28;20467;-59
2022/01/24 14:04:54;;;;;;;0.00;0.00;;;5.30;78.80;;;;;;4165537;28;20046;-59
2022/01/24 14:07:24;;;;;;;0.00;0.00;;;5.60;78.20;;;;;;4179476;28;20592;-61
2022/01/24 14:09:53;;;;;;;0.00;0.00;;;5.50;77.80;;;;;;4179716;28;20045;-59
2022/01/24 14:12:39;;;;;;;0.00;0.00;;;5.30;78.30;;;;;;4178738;28;20053;-60
2022/01/24 14:15:15;;;;;;;0.00;0.00;;;5.20;78.60;;;;;;4193413;28;20056;-59
2022/01/24 14:17:46;;;;;;;0.00;0.00;;;5.10;79.20;;;;;;4179667;28;20045;-59
2022/01/24 14:20:20;;;;;;;0.00;0.00;;;5.10;79.30;;;;;;4179249;28;20165;-60
2022/01/24 14:22:54;;;;;;;0.00;0.00;;;5.60;79.30;;;;;;4178855;28;20120;-59
2022/01/24 14:25:25;;;;;;;0.00;0.00;;;6.30;77.80;;;;;;4179011;28;20478;-59
2022/01/24 14:28:09;;;;;;;0.00;0.00;;;6.70;76.00;;;;;;4192765;28;20048;-59
2022/01/24 14:30:43;;;;;;;0.00;0.00;;;7.20;75.50;;;;;;4175532;28;20064;-59
2022/01/24 14:33:33;;;;;;;0.00;0.00;;;7.40;73.90;;;;;;4160162;28;20094;-59
2022/01/24 14:35:55;;;;;;;0.00;0.00;;;7.60;73.20;;;;;;4179156;28;20546;-59
2022/01/24 14:38:30;;;;;;;0.00;0.00;;;7.70;73.20;;;;;;4178601;28;20053;-60
2022/01/24 14:40:55;;;;;;;0.00;0.00;;;8.00;72.30;;;;;;4178932;28;20414;-59
2022/01/24 14:46:07;;;;;;;0.00;0.00;;;8.00;71.00;;;;;;4178878;28;20461;-59
2022/01/24 14:48:29;;;;;;;0.00;0.00;;;8.00;71.30;;;;;;4164494;28;20088;-59